createdAt,value
2018-09-12T00:02:00.067Z,16.74
2018-09-12T00:06:54.808Z,16.72
2018-09-12T00:11:49.559Z,16.68
2018-09-12T00:16:44.198Z,16.63
2018-09-12T00:21:38.875Z,16.57
2018-09-12T00:42:48.003Z,16.34
2018-09-12T00:47:42.618Z,16.29
2018-09-12T00:52:37.322Z,16.23
2018-09-12T00:57:31.941Z,16.18
2018-09-12T01:02:26.903Z,16.13
2018-09-12T01:07:21.533Z,16.06
2018-09-12T01:12:16.227Z,16.03
2018-09-12T01:33:25.588Z,15.90
2018-09-12T01:38:20.150Z,15.84
2018-09-12T01:43:14.800Z,15.80
2018-09-12T01:48:09.423Z,15.80
2018-09-12T01:53:04.066Z,15.70
2018-09-12T01:57:58.732Z,15.67
2018-09-12T02:02:53.395Z,15.63
2018-09-12T02:24:03.806Z,15.37
2018-09-12T02:28:58.408Z,15.45
2018-09-12T02:33:53.076Z,15.61
2018-09-12T02:38:47.792Z,15.57
2018-09-12T02:43:42.456Z,15.39
2018-09-12T02:48:37.112Z,15.34
2018-09-12T02:53:31.715Z,15.26
2018-09-12T03:14:40.990Z,15.10
2018-09-12T03:19:35.721Z,15.04
2018-09-12T03:24:30.440Z,15.01
2018-09-12T03:29:25.115Z,14.96
2018-09-12T03:34:19.722Z,14.93
2018-09-12T03:39:14.401Z,14.93
2018-09-12T03:44:09.698Z,14.92
2018-09-12T04:05:19.698Z,14.82
2018-09-12T04:10:14.395Z,14.82
2018-09-12T04:15:09.113Z,14.76
2018-09-12T04:20:04.451Z,14.81
2018-09-12T04:24:59.219Z,14.76
2018-09-12T04:29:54.446Z,14.68
2018-09-12T04:34:49.468Z,14.69
2018-09-12T04:55:59.358Z,14.56
2018-09-12T05:00:54.107Z,14.56
2018-09-12T05:05:49.067Z,14.57
2018-09-12T05:10:43.927Z,14.75
2018-09-12T05:15:39.372Z,15.28
2018-09-12T05:20:34.084Z,15.95
2018-09-12T05:25:28.865Z,16.77
2018-09-12T05:46:38.272Z,19.83
2018-09-12T05:51:32.770Z,20.44
2018-09-12T05:56:27.385Z,20.98
2018-09-12T06:01:21.930Z,21.49
2018-09-12T06:06:16.443Z,21.56
2018-09-12T06:11:10.956Z,21.84
2018-09-12T06:16:10.979Z,22.74
2018-09-12T06:37:22.577Z,23.31
2018-09-12T06:42:20.675Z,23.39
2018-09-12T06:47:15.658Z,23.03
2018-09-12T06:52:10.803Z,23.00
2018-09-12T06:57:06.972Z,22.40
2018-09-12T07:02:02.058Z,22.00
2018-09-12T07:06:58.201Z,21.43
2018-09-12T07:28:10.332Z,21.82
2018-09-12T07:33:06.019Z,21.96
2018-09-12T07:38:01.304Z,22.58
2018-09-12T07:42:59.088Z,22.48
2018-09-12T07:47:54.606Z,22.77
2018-09-12T07:52:49.853Z,22.98
2018-09-12T07:57:45.078Z,22.92
2018-09-12T08:18:56.006Z,23.15
2018-09-12T08:24:08.136Z,23.43
2018-09-12T08:29:35.347Z,23.53
2018-09-12T08:34:34.314Z,23.75
2018-09-12T08:39:32.023Z,24.01
2018-09-12T08:44:33.757Z,24.40
2018-09-12T09:05:44.216Z,24.61
2018-09-12T09:10:38.900Z,24.75
2018-09-12T09:15:33.517Z,24.91
2018-09-12T09:20:30.218Z,25.13
2018-09-12T09:25:26.279Z,24.64
2018-09-12T09:30:27.067Z,24.80
2018-09-12T09:35:23.539Z,24.96
2018-09-12T09:56:32.295Z,25.53
2018-09-12T10:01:42.387Z,25.44
2018-09-12T10:06:51.731Z,25.01
2018-09-12T10:12:02.789Z,25.35
2018-09-12T10:17:18.254Z,25.60
2018-09-12T10:22:13.562Z,25.97
2018-09-12T10:27:08.097Z,25.96
2018-09-12T10:48:40.244Z,25.62
2018-09-12T10:53:35.489Z,25.74
2018-09-12T10:58:30.413Z,25.88
2018-09-12T11:03:35.043Z,25.80
2018-09-12T11:08:30.152Z,26.14
2018-09-12T11:13:39.614Z,26.09
2018-09-12T11:18:34.676Z,26.18
2018-09-12T11:39:44.184Z,26.63
2018-09-12T11:44:38.701Z,26.44
2018-09-12T11:49:33.303Z,26.55
2018-09-12T11:55:01.289Z,26.64
2018-09-12T12:00:18.377Z,26.76
2018-09-12T12:05:36.734Z,26.87
2018-09-12T12:26:54.026Z,26.86
2018-09-12T12:31:50.709Z,27.04
2018-09-12T12:36:50.621Z,27.10
2018-09-12T12:41:55.035Z,27.10
2018-09-12T12:46:52.499Z,27.28
2018-09-12T12:51:48.485Z,27.39
2018-09-12T12:56:45.279Z,27.57
2018-09-12T13:17:54.421Z,27.75
2018-09-12T13:22:49.235Z,27.69
2018-09-12T13:27:44.220Z,27.59
2018-09-12T13:32:39.104Z,27.40
2018-09-12T13:37:33.579Z,27.39
2018-09-12T13:42:28.313Z,27.46
2018-09-12T13:47:23.706Z,27.55
2018-09-12T14:08:33.853Z,27.63
2018-09-12T14:13:47.366Z,27.71
2018-09-12T14:18:42.339Z,27.75
2018-09-12T14:23:37.065Z,27.70
2018-09-12T14:28:33.036Z,27.83
2018-09-12T14:33:27.956Z,27.91
2018-09-12T14:38:22.636Z,27.82
2018-09-12T14:59:32.103Z,27.80
2018-09-12T15:04:26.698Z,27.82
2018-09-12T15:09:21.762Z,27.83
2018-09-12T15:14:16.649Z,27.86
2018-09-12T15:19:11.342Z,27.92
2018-09-12T15:24:05.953Z,28.11
2018-09-12T15:29:00.730Z,28.33
2018-09-12T15:50:10.443Z,28.21
2018-09-12T15:55:05.028Z,28.30
2018-09-12T15:59:59.569Z,28.07
2018-09-12T16:04:54.220Z,28.05
2018-09-12T16:09:48.779Z,28.08
2018-09-12T16:14:43.273Z,28.00
2018-09-12T16:19:37.845Z,27.66
2018-09-12T16:40:47.598Z,26.52
2018-09-12T16:45:42.078Z,26.56
2018-09-12T16:50:36.813Z,26.44
2018-09-12T16:55:31.336Z,26.34
2018-09-12T17:00:26.542Z,26.24
2018-09-12T17:05:21.513Z,26.16
2018-09-12T17:16:08.350Z,25.90
2018-09-12T17:21:03.718Z,25.76
2018-09-12T17:25:58.337Z,25.52
2018-09-12T17:30:52.920Z,25.29
2018-09-12T17:35:47.749Z,25.09
2018-09-12T17:40:42.369Z,24.92
2018-09-12T17:45:36.908Z,24.74
2018-09-12T17:50:31.724Z,24.56
2018-09-12T17:55:26.821Z,24.35
2018-09-12T18:00:21.405Z,24.18
2018-09-12T18:05:15.988Z,24.06
2018-09-12T18:10:10.925Z,23.95
2018-09-12T18:15:05.946Z,23.81
2018-09-12T18:20:00.494Z,23.61
2018-09-12T18:24:55.046Z,23.46
2018-09-12T18:29:49.617Z,23.33
2018-09-12T18:34:44.281Z,23.22
2018-09-12T18:39:39.142Z,23.11
2018-09-12T18:44:33.717Z,23.08
2018-09-12T18:49:28.429Z,22.98
2018-09-12T18:54:23.218Z,22.98
2018-09-12T18:59:17.784Z,22.96
2018-09-12T19:04:12.343Z,22.89
2018-09-12T19:09:10.242Z,22.82
2018-09-12T19:14:05.020Z,22.73
2018-09-12T19:18:59.561Z,22.72
2018-09-12T19:23:54.144Z,22.64
2018-09-12T19:28:48.729Z,22.58
2018-09-12T19:33:43.309Z,22.54
2018-09-12T19:38:37.909Z,22.48
2018-09-12T19:43:32.502Z,22.40
2018-09-12T19:48:27.082Z,22.35
2018-09-12T19:53:21.666Z,22.24
2018-09-12T19:58:16.332Z,22.23
2018-09-12T20:03:10.872Z,22.22
2018-09-12T20:08:05.735Z,22.16
2018-09-12T20:13:00.381Z,22.14
2018-09-12T20:17:55.029Z,22.04
2018-09-12T20:22:49.588Z,22.01
2018-09-12T20:27:44.564Z,22.03
2018-09-12T20:32:39.084Z,22.08
2018-09-12T20:37:33.668Z,22.07
2018-09-12T20:42:28.162Z,22.01
2018-09-12T20:47:22.717Z,21.92
2018-09-12T20:52:17.421Z,21.92
2018-09-12T20:57:11.978Z,21.88
2018-09-12T21:02:06.761Z,21.81
2018-09-12T21:07:01.368Z,21.75
2018-09-12T21:11:56.231Z,21.73
2018-09-12T21:16:50.805Z,21.70
2018-09-12T21:21:45.336Z,21.62
2018-09-12T21:26:39.873Z,21.67
2018-09-12T21:31:34.416Z,21.66
2018-09-12T21:36:28.960Z,21.54
2018-09-12T21:41:23.772Z,21.50
2018-09-12T21:46:18.449Z,21.43
2018-09-12T21:51:13.012Z,21.32
2018-09-12T21:56:07.607Z,21.26
2018-09-12T22:01:02.181Z,21.25
2018-09-12T22:05:56.719Z,21.38
2018-09-12T22:10:51.287Z,21.51
2018-09-12T22:15:45.777Z,21.42
2018-09-12T22:20:40.306Z,21.50
2018-09-12T22:25:34.864Z,21.29
2018-09-12T22:30:29.396Z,21.23
2018-09-12T22:35:23.926Z,21.14
2018-09-12T22:40:18.476Z,21.14
2018-09-12T22:45:13.061Z,21.14
2018-09-12T22:50:07.851Z,21.12
2018-09-12T22:55:02.393Z,21.06
2018-09-12T22:59:56.953Z,21.06
2018-09-12T23:04:51.497Z,21.21
2018-09-12T23:09:46.043Z,21.21
2018-09-12T23:14:40.553Z,21.53
2018-09-12T23:19:35.061Z,21.27
2018-09-12T23:24:29.607Z,21.22
2018-09-12T23:29:24.265Z,21.21
2018-09-12T23:34:18.849Z,21.33
2018-09-12T23:39:14.540Z,21.32
2018-09-12T23:44:09.324Z,21.20
2018-09-12T23:49:03.881Z,21.02
2018-09-12T23:53:58.417Z,20.85
2018-09-12T23:58:52.950Z,20.67
